Time;durP1;ratioP1;P1;durP2;ratioP2;P2;SDS_P1;SDS_P2;PMS_P1;PMS_P2;Temp;Humidity;BMP_temperature;BMP_pressure;BME280_temperature;BME280_humidity;BME280_pressure;Samples;Min_cycle;Max_cycle;Signal;HPM_P1;HPM_P2
2021/06/03 00:00:22;;;;;;;0.40;0.40;;;;;;;17.82;48.90;97144.53;29395;212;63004;-62
2021/06/03 00:00:58;;;;;;;0.40;0.40;;;;;;;17.81;49.15;97151.16;29417;205;63008;-62
2021/06/03 00:01:30;;;;;;;0.40;0.40;;;;;;;17.81;49.29;97144.88;29395;249;63005;-69
2021/06/03 00:02:03;;;;;;;0.40;0.40;;;;;;;17.80;49.37;97146.81;29394;273;64009;-63
2021/06/03 00:02:35;;;;;;;0.40;0.40;;;;;;;17.79;49.27;97142.44;29395;200;63005;-69
2021/06/03 00:03:10;;;;;;;0.35;0.35;;;;;;;17.78;49.23;97146.31;29395;226;63009;-62
2021/06/03 00:03:41;;;;;;;0.40;0.40;;;;;;;17.77;49.46;97141.97;29395;258;63005;-70
2021/06/03 00:04:13;;;;;;;0.40;0.40;;;;;;;17.76;49.59;97151.34;29395;202;63024;-63
2021/06/03 00:04:44;;;;;;;0.40;0.40;;;;;;;17.76;49.30;97148.59;29395;256;63005;-64
2021/06/03 00:05:22;;;;;;;0.40;0.40;;;;;;;17.75;49.30;97147.00;29395;213;63009;-64
2021/06/03 00:05:59;;;;;;;0.40;0.40;;;;;;;17.74;49.64;97151.69;29395;206;63017;-63
2021/06/03 00:06:30;;;;;;;0.40;0.40;;;;;;;17.72;49.52;97148.47;29395;198;63009;-62
2021/06/03 00:07:05;;;;;;;0.40;0.40;;;;;;;17.72;49.87;97151.19;29394;290;64004;-63
2021/06/03 00:07:36;;;;;;;0.40;0.40;;;;;;;17.73;50.56;97154.75;29395;270;63019;-64
2021/06/03 00:08:09;;;;;;;0.40;0.40;;;;;;;17.75;50.68;97160.72;29395;227;63004;-65
2021/06/03 00:08:42;;;;;;;0.40;0.40;;;;;;;17.74;50.31;97148.13;29395;369;63013;-69
2021/06/03 00:09:15;;;;;;;0.40;0.40;;;;;;;17.74;50.27;97150.87;29395;209;63005;-63
2021/06/03 00:09:46;;;;;;;0.40;0.40;;;;;;;17.73;50.42;97149.25;29395;211;63017;-64
2021/06/03 00:10:19;;;;;;;0.40;0.40;;;;;;;17.75;50.60;97147.78;29395;213;63005;-68
2021/06/03 00:11:13;;;;;;;0.30;0.30;;;;;;;17.75;50.25;97147.00;29395;209;63009;-64
2021/06/03 00:11:45;;;;;;;0.40;0.40;;;;;;;17.75;50.10;97155.22;29394;223;64005;-64
2021/06/03 00:12:16;;;;;;;0.37;0.37;;;;;;;17.73;50.31;97152.00;29394;241;64009;-64
2021/06/03 00:12:47;;;;;;;0.40;0.40;;;;;;;17.73;50.49;97155.56;29395;197;63005;-69
2021/06/03 00:13:21;;;;;;;0.40;0.40;;;;;;;17.76;50.59;97148.59;29395;216;63009;-70
2021/06/03 00:13:53;;;;;;;1.17;1.08;;;;;;;17.75;51.48;97164.25;29395;202;63004;-62
2021/06/03 00:14:24;;;;;;;0.40;0.40;;;;;;;17.72;51.06;97153.94;29395;203;63004;-64
2021/06/03 00:14:55;;;;;;;0.40;0.40;;;;;;;17.69;50.86;97160.09;29395;247;63004;-64
2021/06/03 00:15:27;;;;;;;0.40;0.40;;;;;;;17.67;50.60;97156.09;29395;203;63009;-62
2021/06/03 00:16:05;;;;;;;0.40;0.40;;;;;;;17.65;50.76;97163.88;29395;267;63004;-63
2021/06/03 00:16:36;;;;;;;0.40;0.40;;;;;;;17.64;51.03;97152.06;29394;225;64009;-69
2021/06/03 00:17:07;;;;;;;0.40;0.40;;;;;;;17.62;50.91;97159.81;29395;203;63017;-64
2021/06/03 00:17:39;;;;;;;0.40;0.40;;;;;;;17.63;51.12;97160.63;29395;208;63016;-69
2021/06/03 00:18:12;;;;;;;0.40;0.40;;;;;;;17.60;51.02;97159.34;29395;251;63005;-68
2021/06/03 00:18:44;;;;;;;0.40;0.40;;;;;;;17.59;50.95;97165.16;29394;219;64002;-64
2021/06/03 00:19:16;;;;;;;0.40;0.40;;;;;;;17.58;50.73;97158.06;29395;267;63005;-63
2021/06/03 00:19:48;;;;;;;0.30;0.30;;;;;;;17.56;50.73;97166.63;29395;227;63009;-63
2021/06/03 00:20:23;;;;;;;0.40;0.40;;;;;;;17.55;51.12;97166.94;29395;246;63005;-65
2021/06/03 00:20:56;;;;;;;0.40;0.40;;;;;;;17.53;51.55;97161.00;29394;360;64009;-64
2021/06/03 00:21:27;;;;;;;0.40;0.40;;;;;;;17.51;51.98;97163.25;29395;202;63011;-64
2021/06/03 00:21:58;;;;;;;0.32;0.32;;;;;;;17.49;51.98;97168.28;29395;226;63009;-64
2021/06/03 00:22:30;;;;;;;0.40;0.40;;;;;;;17.46;52.26;97163.44;29395;204;63004;-62
2021/06/03 00:23:02;;;;;;;0.40;0.40;;;;;;;17.46;52.13;97157.94;29395;199;63008;-63
2021/06/03 00:23:35;;;;;;;0.40;0.40;;;;;;;17.44;52.39;97163.78;29395;202;63004;-62
2021/06/03 00:24:06;;;;;;;0.40;0.40;;;;;;;17.43;52.15;97157.47;29395;319;63009;-64
2021/06/03 00:24:38;;;;;;;0.40;0.40;;;;;;;17.40;52.25;97158.13;29394;226;64005;-66
2021/06/03 00:25:10;;;;;;;0.40;0.40;;;;;;;17.38;52.71;97168.63;29395;291;63009;-65
2021/06/03 00:25:41;;;;;;;0.30;0.30;;;;;;;17.36;54.85;97162.66;29395;202;63005;-64
2021/06/03 00:26:12;;;;;;;0.40;0.40;;;;;;;17.31;53.76;97165.63;29394;219;64009;-64
2021/06/03 00:26:43;;;;;;;0.40;0.40;;;;;;;17.28;53.38;97166.28;29395;200;63011;-62
2021/06/03 00:27:15;;;;;;;0.40;0.40;;;;;;;17.27;53.00;97164.66;29395;221;63009;-62
2021/06/03 00:27:47;;;;;;;0.40;0.40;;;;;;;17.26;53.13;97168.53;29395;255;63004;-64
2021/06/03 00:28:20;;;;;;;0.40;0.40;;;;;;;17.24;53.00;97159.84;29395;215;63009;-64
2021/06/03 00:28:51;;;;;;;0.40;0.40;;;;;;;17.24;53.29;97164.53;29395;219;63004;-64
2021/06/03 00:29:22;;;;;;;0.40;0.40;;;;;;;17.21;53.69;97165.97;29395;220;63026;-69
2021/06/03 00:29:54;;;;;;;0.40;0.40;;;;;;;17.20;53.54;97164.38;29395;231;63012;-70
2021/06/03 00:30:25;;;;;;;0.40;0.40;;;;;;;17.18;53.20;97160.34;29395;220;63018;-68
2021/06/03 00:30:56;;;;;;;0.40;0.40;;;;;;;17.16;53.46;97168.91;29395;246;63010;-62
2021/06/03 00:31:32;;;;;;;0.40;0.40;;;;;;;17.16;53.44;97163.41;29394;245;64000;-64
2021/06/03 00:32:06;;;;;;;0.40;0.40;;;;;;;17.16;53.82;97163.41;29395;258;63005;-64
2021/06/03 00:32:37;;;;;;;0.40;0.40;;;;;;;17.13;53.42;97164.06;29395;322;63023;-63
2021/06/03 00:33:08;;;;;;;0.40;0.40;;;;;;;17.13;53.36;97169.56;29395;290;63005;-64
2021/06/03 00:33:41;;;;;;;0.40;0.40;;;;;;;17.11;53.63;97163.59;29395;222;63009;-68
2021/06/03 00:34:13;;;;;;;0.40;0.40;;;;;;;17.11;53.55;97166.34;29395;202;63005;-64
2021/06/03 00:34:44;;;;;;;0.40;0.40;;;;;;;17.09;53.14;97163.13;29395;223;63009;-64
2021/06/03 00:35:16;;;;;;;0.40;0.40;;;;;;;17.09;53.29;97174.09;29395;213;63004;-64
2021/06/03 00:35:47;;;;;;;0.40;0.40;;;;;;;17.07;53.43;97170.88;29395;224;63009;-65
2021/06/03 00:36:18;;;;;;;0.40;0.40;;;;;;;17.06;53.39;97164.56;29395;213;63004;-63
2021/06/03 00:36:49;;;;;;;0.40;0.40;;;;;;;17.04;53.47;97161.34;29394;224;64009;-64
2021/06/03 00:37:21;;;;;;;0.40;0.40;;;;;;;17.03;53.52;97164.41;29395;218;63004;-65
2021/06/03 00:37:53;;;;;;;0.40;0.40;;;;;;;17.02;53.25;97169.09;29395;308;63008;-63
2021/06/03 00:38:24;;;;;;;0.40;0.40;;;;;;;17.01;53.64;97166.69;29394;217;64005;-64
2021/06/03 00:38:59;;;;;;;0.40;0.40;;;;;;;17.01;53.42;97166.69;29395;287;63009;-63
2021/06/03 00:39:30;;;;;;;0.40;0.40;;;;;;;16.99;53.90;97163.47;29395;205;63005;-63
2021/06/03 00:40:04;;;;;;;0.40;0.40;;;;;;;16.97;53.58;97166.56;29395;216;63009;-67
2021/06/03 00:40:37;;;;;;;0.40;0.40;;;;;;;16.97;53.64;97171.25;29395;252;63012;-64
2021/06/03 00:41:09;;;;;;;0.40;0.40;;;;;;;16.97;53.76;97169.31;29395;264;63009;-64
2021/06/03 00:41:43;;;;;;;0.40;0.40;;;;;;;16.97;54.40;97165.75;29394;242;64005;-69
2021/06/03 00:42:15;;;;;;;0.40;0.40;;;;;;;16.95;53.65;97178.97;29395;300;63009;-68
2021/06/03 00:42:46;;;;;;;0.40;0.40;;;;;;;16.93;53.91;97162.88;29394;210;64004;-62
2021/06/03 00:43:17;;;;;;;0.40;0.40;;;;;;;16.93;54.00;97162.06;29395;213;63009;-65
2021/06/03 00:43:49;;;;;;;0.40;0.40;;;;;;;16.92;54.17;97174.16;29395;212;63004;-62
2021/06/03 00:44:20;;;;;;;0.43;0.43;;;;;;;16.92;54.04;97163.19;29395;226;63009;-63
2021/06/03 00:44:52;;;;;;;0.40;0.40;;;;;;;16.92;54.33;97174.16;29394;221;64004;-68
2021/06/03 00:45:30;;;;;;;0.40;0.40;;;;;;;16.90;53.75;97165.44;29395;220;63012;-64
2021/06/03 00:46:02;;;;;;;0.40;0.40;;;;;;;16.89;53.98;97163.84;29395;213;63005;-63
2021/06/03 00:46:34;;;;;;;0.40;0.40;;;;;;;16.88;54.95;97173.19;29395;202;63009;-68
2021/06/03 00:47:05;;;;;;;0.40;0.40;;;;;;;16.86;53.98;97175.44;29394;223;64005;-64
2021/06/03 00:47:37;;;;;;;0.40;0.40;;;;;;;16.85;54.45;97168.34;29395;239;63009;-62
2021/06/03 00:48:09;;;;;;;0.40;0.40;;;;;;;16.84;54.59;97177.72;29395;205;63005;-62
2021/06/03 00:48:41;;;;;;;0.40;0.40;;;;;;;16.84;54.53;97172.22;29395;218;63023;-63
2021/06/03 00:49:12;;;;;;;0.40;0.40;;;;;;;16.84;54.21;97172.22;29395;198;63005;-65
2021/06/03 00:49:47;;;;;;;0.40;0.40;;;;;;;16.82;55.32;97180.78;29395;265;63009;-64
2021/06/03 00:50:23;;;;;;;0.40;0.40;;;;;;;16.79;54.50;97175.13;29395;239;63004;-64
2021/06/03 00:50:57;;;;;;;0.40;0.40;;;;;;;16.74;54.67;97171.44;29394;199;64009;-64
2021/06/03 00:51:28;;;;;;;0.40;0.40;;;;;;;16.72;54.58;97173.69;29395;200;63004;-64
2021/06/03 00:51:59;;;;;;;0.47;0.47;;;;;;;16.72;54.65;97176.44;29395;253;63009;-63
2021/06/03 00:52:30;;;;;;;0.40;0.40;;;;;;;16.72;55.21;97181.09;29395;243;63004;-63
2021/06/03 00:53:07;;;;;;;0.40;0.40;;;;;;;16.71;54.53;97174.03;29395;205;63008;-64
2021/06/03 00:53:40;;;;;;;0.40;0.40;;;;;;;16.71;54.54;97169.34;29395;270;63005;-63
2021/06/03 00:54:12;;;;;;;0.40;0.40;;;;;;;16.72;54.15;97176.44;29395;210;63009;-64
2021/06/03 00:54:43;;;;;;;0.40;0.40;;;;;;;16.71;54.34;97174.81;29395;225;63005;-63
2021/06/03 00:55:15;;;;;;;0.40;0.40;;;;;;;16.72;54.27;97173.69;29394;197;64009;-69
2021/06/03 00:55:52;;;;;;;0.40;0.40;;;;;;;16.70;54.02;97166.94;29395;272;63005;-62
2021/06/03 00:56:24;;;;;;;0.40;0.40;;;;;;;16.70;53.73;97183.38;29395;257;63009;-64
2021/06/03 00:56:55;;;;;;;0.40;0.40;;;;;;;16.69;53.81;97174.34;29395;215;63005;-63
2021/06/03 00:57:28;;;;;;;0.40;0.40;;;;;;;16.69;53.83;97171.59;29394;220;64009;-62
2021/06/03 00:58:00;;;;;;;0.40;0.40;;;;;;;16.69;53.73;97176.28;29395;222;63004;-63
2021/06/03 00:58:32;;;;;;;0.40;0.40;;;;;;;16.69;53.58;97166.13;29395;209;63009;-63
2021/06/03 00:59:05;;;;;;;0.40;0.40;;;;;;;16.70;53.97;97172.41;29395;260;63004;-63
2021/06/03 00:59:36;;;;;;;0.40;0.40;;;;;;;16.72;53.88;97170.16;29395;258;63009;-63
2021/06/03 01:00:12;;;;;;;0.50;0.50;;;;;;;16.74;53.98;97174.19;29395;199;63011;-64
2021/06/03 01:00:44;;;;;;;0.50;0.50;;;;;;;16.76;53.75;97176.59;29394;234;64008;-62
2021/06/03 01:01:16;;;;;;;0.40;0.40;;;;;;;16.76;53.62;97171.13;29395;222;63005;-65
2021/06/03 01:01:47;;;;;;;0.40;0.40;;;;;;;16.77;53.93;97171.91;29395;210;63009;-64
2021/06/03 01:02:18;;;;;;;0.40;0.40;;;;;;;16.77;54.12;97180.94;29395;227;63005;-63
2021/06/03 01:02:49;;;;;;;0.40;0.40;;;;;;;16.77;53.83;97177.41;29395;214;63009;-64
2021/06/03 01:03:22;;;;;;;0.40;0.40;;;;;;;16.77;53.79;97177.41;29395;241;63005;-64
2021/06/03 01:03:53;;;;;;;0.45;0.45;;;;;;;16.74;53.77;97179.66;29395;271;63009;-64
2021/06/03 01:04:26;;;;;;;1.10;1.10;;;;;;;16.74;54.02;97176.91;29394;204;64005;-64
2021/06/03 01:04:57;;;;;;;0.40;0.40;;;;;;;16.75;54.05;97175.78;29395;213;63009;-64
2021/06/03 01:05:43;;;;;;;0.40;0.40;;;;;;;16.74;53.97;97179.66;29395;260;63004;-63
2021/06/03 01:06:16;;;;;;;0.40;0.40;;;;;;;16.75;54.02;97178.53;29395;199;63009;-63
2021/06/03 01:06:48;;;;;;;0.50;0.50;;;;;;;16.77;54.42;97182.88;29395;207;63004;-64
2021/06/03 01:07:20;;;;;;;0.40;0.40;;;;;;;16.79;54.45;97177.88;29394;255;64009;-62
2021/06/03 01:07:54;;;;;;;0.50;0.50;;;;;;;16.80;54.32;97174.81;29395;237;63004;-63
2021/06/03 01:08:38;;;;;;;0.50;0.50;;;;;;;16.80;54.18;97182.22;29395;211;63023;-68
2021/06/03 01:09:28;;;;;;;0.47;0.47;;;;;;;16.80;54.42;97176.75;29395;216;63011;-65
2021/06/03 01:10:25;;;;;;;0.50;0.50;;;;;;;16.79;54.55;97175.13;29394;218;64009;-63
2021/06/03 01:11:33;;;;;;;0.50;0.50;;;;;;;16.79;54.58;97180.63;29395;250;63005;-63
2021/06/03 01:12:24;;;;;;;0.40;0.40;;;;;;;16.76;54.53;97171.13;29395;202;63005;-63
2021/06/03 01:13:14;;;;;;;0.50;0.50;;;;;;;16.75;54.84;97174.97;29417;315;63009;-62
2021/06/03 01:14:03;;;;;;;0.50;0.50;;;;;;;16.73;54.54;97175.31;29395;213;63008;-64
2021/06/03 01:14:45;;;;;;;0.50;0.50;;;;;;;16.71;54.39;97177.56;29394;264;64009;-62
2021/06/03 01:15:18;;;;;;;0.40;0.40;;;;;;;16.69;54.02;97174.34;29395;196;63010;-63
2021/06/03 01:15:51;;;;;;;0.40;0.40;;;;;;;16.70;54.51;97178.69;29395;202;63008;-63
2021/06/03 01:16:23;;;;;;;0.50;0.50;;;;;;;16.69;54.40;97179.81;29395;238;63005;-63
2021/06/03 01:16:58;;;;;;;0.50;0.50;;;;;;;16.68;54.57;97175.47;29395;200;63009;-63
2021/06/03 01:17:31;;;;;;;0.50;0.50;;;;;;;16.67;54.39;97176.59;29395;261;63005;-64
2021/06/03 01:18:03;;;;;;;0.40;0.40;;;;;;;16.66;54.71;97176.94;29395;205;63009;-63
2021/06/03 01:18:37;;;;;;;0.50;0.50;;;;;;;16.65;54.23;97169.84;29395;246;63005;-62
2021/06/03 01:19:12;;;;;;;0.40;0.40;;;;;;;16.64;54.46;97180.00;29395;203;63009;-61
2021/06/03 01:19:45;;;;;;;0.40;0.40;;;;;;;16.63;54.41;97178.34;29394;246;64005;-63
2021/06/03 01:20:18;;;;;;;0.40;0.40;;;;;;;16.62;54.54;97176.78;29395;202;63009;-63
2021/06/03 01:20:50;;;;;;;0.40;0.40;;;;;;;16.62;54.31;97170.47;29395;202;63004;-63
2021/06/03 01:21:41;;;;;;;0.40;0.40;;;;;;;16.61;54.81;97175.16;29395;245;63009;-63
2021/06/03 01:23:09;;;;;;;0.40;0.40;;;;;;;16.59;54.70;97180.16;29417;202;63004;-70
2021/06/03 01:23:58;;;;;;;0.50;0.50;;;;;;;16.58;54.64;97184.03;29395;220;63015;-63
2021/06/03 01:24:42;;;;;;;0.50;0.50;;;;;;;16.56;54.58;97175.31;29394;238;63997;-63
2021/06/03 01:25:15;;;;;;;0.40;0.40;;;;;;;16.58;54.83;97185.97;29395;212;63009;-64
2021/06/03 01:25:48;;;;;;;0.50;0.50;;;;;;;16.56;54.54;97175.31;29395;228;63005;-62
2021/06/03 01:26:20;;;;;;;0.40;0.40;;;;;;;16.56;54.55;97183.53;29395;297;63009;-63
2021/06/03 01:26:57;;;;;;;0.40;0.40;;;;;;;16.57;54.81;97187.87;29394;211;64005;-62
2021/06/03 01:27:32;;;;;;;0.40;0.40;;;;;;;16.58;54.92;97185.97;29395;283;63009;-63
2021/06/03 01:28:05;;;;;;;0.45;0.45;;;;;;;16.58;54.94;97184.03;29395;205;63004;-62
2021/06/03 01:28:36;;;;;;;0.40;0.40;;;;;;;16.58;54.73;97175.81;29395;210;63013;-62
2021/06/03 01:29:08;;;;;;;0.50;0.50;;;;;;;16.56;54.74;97180.81;29394;213;64004;-64
2021/06/03 01:29:51;;;;;;;0.50;0.50;;;;;;;16.55;54.70;97179.19;29394;245;64008;-63
2021/06/03 01:30:30;;;;;;;0.50;0.50;;;;;;;16.53;54.70;97184.19;29395;240;63004;-62
2021/06/03 01:31:03;;;;;;;0.50;0.50;;;;;;;16.51;54.71;97177.41;29394;333;64008;-64
2021/06/03 01:31:34;;;;;;;0.50;0.50;;;;;;;16.50;55.04;97181.28;29395;220;63005;-64
2021/06/03 01:32:06;;;;;;;0.50;0.50;;;;;;;16.49;54.90;97177.75;29395;239;63024;-63
2021/06/03 01:32:44;;;;;;;0.45;0.45;;;;;;;16.48;55.26;97173.37;29395;245;63005;-63
2021/06/03 01:33:22;;;;;;;0.50;0.50;;;;;;;16.51;55.41;97180.16;29395;219;63009;-63
2021/06/03 01:33:54;;;;;;;0.40;0.40;;;;;;;16.49;55.35;97180.47;29395;199;63000;-64
2021/06/03 01:34:27;;;;;;;0.50;0.50;;;;;;;16.50;55.51;97178.53;29395;208;63009;-62
2021/06/03 01:35:00;;;;;;;0.43;0.43;;;;;;;16.49;55.62;97177.75;29394;206;64004;-63
2021/06/03 01:35:38;;;;;;;0.50;0.50;;;;;;;16.48;55.67;97173.37;29395;236;63009;-64
2021/06/03 01:36:13;;;;;;;0.40;0.40;;;;;;;16.46;55.34;97172.09;29395;202;63004;-63
2021/06/03 01:36:45;;;;;;;0.50;0.50;;;;;;;16.44;55.64;97186.13;29395;215;63009;-65
2021/06/03 01:37:17;;;;;;;0.50;0.50;;;;;;;16.42;55.18;97185.62;29395;204;63004;-62
2021/06/03 01:37:50;;;;;;;0.50;0.50;;;;;;;16.40;55.58;97183.22;29395;196;63008;-64
2021/06/03 01:38:32;;;;;;;0.50;0.50;;;;;;;16.38;55.52;97181.94;29395;206;63005;-63
2021/06/03 01:39:08;;;;;;;0.50;0.50;;;;;;;16.37;55.91;97185.78;29416;281;64009;-63
2021/06/03 01:39:43;;;;;;;0.50;0.50;;;;;;;16.34;55.70;97192.72;29395;227;63009;-63
2021/06/03 01:40:15;;;;;;;0.50;0.50;;;;;;;16.32;55.87;97191.44;29395;246;63009;-63
2021/06/03 01:40:48;;;;;;;0.50;0.50;;;;;;;16.32;55.63;97191.44;29395;214;63010;-65
2021/06/03 01:41:20;;;;;;;0.50;0.50;;;;;;;16.32;55.94;97183.22;29394;196;64009;-64
2021/06/03 01:41:55;;;;;;;0.50;0.50;;;;;;;16.32;56.05;97188.69;29395;271;63018;-63
2021/06/03 01:42:27;;;;;;;0.50;0.50;;;;;;;16.32;55.96;97188.69;29395;248;63021;-63
2021/06/03 01:43:00;;;;;;;0.40;0.40;;;;;;;16.31;56.25;97190.63;29395;240;63004;-63
2021/06/03 01:43:34;;;;;;;0.40;0.40;;;;;;;16.30;56.47;97191.75;29395;213;63016;-63
2021/06/03 01:44:07;;;;;;;0.50;0.50;;;;;;;16.30;56.17;97186.28;29395;217;63016;-62
2021/06/03 01:44:40;;;;;;;0.50;0.50;;;;;;;16.29;56.29;97195.63;29395;302;63008;-63
2021/06/03 01:45:13;;;;;;;0.47;0.47;;;;;;;16.30;55.89;97190.94;29395;202;63004;-72
2021/06/03 01:45:48;;;;;;;0.50;0.50;;;;;;;16.31;56.70;97195.28;29395;209;63016;-63
2021/06/03 01:46:21;;;;;;;0.50;0.50;;;;;;;16.32;57.02;97189.50;29394;209;64005;-62
2021/06/03 01:46:54;;;;;;;0.43;0.43;;;;;;;16.33;56.57;97190.31;29395;233;63009;-64
2021/06/03 01:47:25;;;;;;;0.50;0.50;;;;;;;16.34;56.42;97189.16;29395;216;63005;-64
2021/06/03 01:47:57;;;;;;;0.50;0.50;;;;;;;16.34;56.78;97191.91;29395;196;63009;-64
2021/06/03 01:48:29;;;;;;;0.50;0.50;;;;;;;16.33;56.32;97180.16;29395;207;63005;-65
2021/06/03 01:49:02;;;;;;;0.40;0.40;;;;;;;16.33;56.26;97193.03;29395;232;63009;-64
2021/06/03 01:49:34;;;;;;;0.40;0.40;;;;;;;16.32;56.31;97184.03;29395;228;63008;-65
2021/06/03 01:50:07;;;;;;;0.50;0.50;;;;;;;16.31;56.20;97192.56;29394;202;64009;-64
2021/06/03 01:50:43;;;;;;;0.40;0.40;;;;;;;16.31;56.26;97192.56;29395;254;63004;-64
2021/06/03 01:51:16;;;;;;;0.50;0.50;;;;;;;16.30;56.73;97190.94;29395;198;63013;-65
2021/06/03 01:51:51;;;;;;;0.50;0.50;;;;;;;16.29;56.44;97197.53;29394;375;64004;-70
2021/06/03 01:52:23;;;;;;;0.50;0.50;;;;;;;16.27;56.69;97195.16;29395;220;63008;-65
2021/06/03 01:52:55;;;;;;;0.50;0.50;;;;;;;16.27;56.70;97191.62;29395;265;63004;-64
2021/06/03 01:53:29;;;;;;;0.50;0.50;;;;;;;16.28;56.88;97196.78;29395;210;63009;-70
2021/06/03 01:54:01;;;;;;;0.50;0.50;;;;;;;16.28;56.62;97195.97;29395;290;63005;-64
2021/06/03 01:54:33;;;;;;;0.40;0.40;;;;;;;16.28;57.12;97193.22;29395;211;63009;-62
2021/06/03 01:55:07;;;;;;;0.47;0.47;;;;;;;16.27;56.55;97197.09;29395;218;63008;-64
2021/06/03 01:55:39;;;;;;;0.43;0.43;;;;;;;16.26;56.79;97196.28;29395;241;63009;-64
2021/06/03 01:56:13;;;;;;;0.50;0.50;;;;;;;16.26;56.77;97196.28;29395;204;63005;-65
2021/06/03 01:56:47;;;;;;;0.40;0.40;;;;;;;16.27;57.12;97191.62;29395;202;63009;-63
2021/06/03 01:57:20;;;;;;;0.50;0.50;;;;;;;16.25;57.21;97197.41;29394;232;64004;-62
2021/06/03 01:57:51;;;;;;;0.40;0.40;;;;;;;16.26;56.98;97192.75;29395;320;63009;-63
2021/06/03 01:58:26;;;;;;;0.40;0.40;;;;;;;16.24;56.96;97197.72;29395;207;63004;-65
2021/06/03 01:58:58;;;;;;;0.40;0.40;;;;;;;16.25;57.07;97193.88;29395;217;63009;-62
2021/06/03 01:59:32;;;;;;;0.40;0.40;;;;;;;16.25;57.07;97199.34;29395;233;63011;-64
2021/06/03 02:00:07;;;;;;;0.40;0.40;;;;;;;16.25;57.72;97199.34;29395;271;63008;-63
2021/06/03 02:00:39;;;;;;;0.50;0.50;;;;;;;16.25;57.43;97194.69;29394;381;64005;-64
2021/06/03 02:01:11;;;;;;;0.50;0.50;;;;;;;16.25;57.54;97188.37;29395;238;63018;-64
2021/06/03 02:01:43;;;;;;;0.40;0.40;;;;;;;16.26;57.91;97190.00;29395;202;63005;-63
2021/06/03 02:02:14;;;;;;;0.40;0.40;;;;;;;16.27;57.80;97186.13;29395;247;63009;-65
2021/06/03 02:02:46;;;;;;;0.43;0.43;;;;;;;16.27;57.39;97191.62;29395;199;63005;-64
2021/06/03 02:03:18;;;;;;;0.40;0.40;;;;;;;16.27;57.57;97194.34;29395;213;63009;-64
2021/06/03 02:03:49;;;;;;;0.40;0.40;;;;;;;16.25;58.00;97183.72;29395;267;63005;-63
2021/06/03 02:04:20;;;;;;;0.50;0.50;;;;;;;16.25;57.67;97185.66;29395;209;63009;-62
2021/06/03 02:04:51;;;;;;;0.40;0.40;;;;;;;16.24;57.63;97195.81;29395;229;63004;-64
2021/06/03 02:05:23;;;;;;;0.50;0.50;;;;;;;16.25;58.01;97193.88;29395;204;63009;-64
2021/06/03 02:05:55;;;;;;;0.50;0.50;;;;;;;16.23;57.72;97188.72;29394;224;64004;-64
2021/06/03 02:06:26;;;;;;;0.40;0.40;;;;;;;16.22;57.81;97195.31;29395;355;63009;-63
2021/06/03 02:06:57;;;;;;;0.50;0.50;;;;;;;16.20;57.73;97196.75;29395;197;63004;-62
2021/06/03 02:07:28;;;;;;;0.50;0.50;;;;;;;16.20;57.84;97194.81;29395;219;63008;-62
2021/06/03 02:08:01;;;;;;;0.40;0.40;;;;;;;16.19;57.83;97189.66;29395;219;63004;-64
2021/06/03 02:08:33;;;;;;;0.50;0.50;;;;;;;16.18;58.09;97188.06;29395;217;63009;-62
2021/06/03 02:09:07;;;;;;;0.50;0.50;;;;;;;16.18;58.31;97194.34;29395;225;63005;-63
2021/06/03 02:09:38;;;;;;;0.43;0.43;;;;;;;16.19;58.22;97201.44;29395;223;63009;-62
2021/06/03 02:10:12;;;;;;;0.50;0.50;;;;;;;16.19;58.42;97195.16;29395;222;63005;-64
2021/06/03 02:10:44;;;;;;;0.50;0.50;;;;;;;16.17;58.58;97198.22;29395;227;63009;-65
2021/06/03 02:11:17;;;;;;;0.40;0.40;;;;;;;16.18;58.31;97190.81;29394;200;64005;-64
2021/06/03 02:11:49;;;;;;;0.50;0.50;;;;;;;16.17;58.20;97198.22;29395;239;63009;-64
2021/06/03 02:12:21;;;;;;;0.50;0.50;;;;;;;16.16;58.18;97196.59;29395;273;63004;-65
2021/06/03 02:13:08;;;;;;;0.40;0.40;;;;;;;16.16;58.63;97195.78;29394;223;64009;-64
2021/06/03 02:13:48;;;;;;;0.40;0.40;;;;;;;16.17;58.69;97194.66;29395;209;63004;-63
2021/06/03 02:14:25;;;;;;;0.50;0.50;;;;;;;16.15;58.32;97194.97;29395;208;63009;-64
2021/06/03 02:14:57;;;;;;;0.50;0.50;;;;;;;16.17;58.60;97197.41;29395;218;63004;-63
2021/06/03 02:15:35;;;;;;;0.47;0.47;;;;;;;16.17;58.78;97186.44;29395;235;63008;-65
2021/06/03 02:16:17;;;;;;;0.50;0.50;;;;;;;16.18;58.46;97188.06;29394;261;64005;-64
2021/06/03 02:16:55;;;;;;;0.50;0.50;;;;;;;16.17;59.04;97192.72;29394;211;64000;-62
2021/06/03 02:17:31;;;;;;;0.50;0.50;;;;;;;16.16;58.35;97191.13;29395;294;63005;-64
2021/06/03 02:18:06;;;;;;;0.40;0.40;;;;;;;16.16;58.85;97191.13;29395;242;63009;-64
2021/06/03 02:19:06;;;;;;;0.50;0.50;;;;;;;16.17;58.80;97191.94;29395;196;63010;-65
2021/06/03 02:19:53;;;;;;;0.50;0.50;;;;;;;16.17;58.84;97191.94;29394;202;64009;-65
2021/06/03 02:20:32;;;;;;;0.40;0.40;;;;;;;16.16;58.61;97190.31;29395;272;63009;-63
2021/06/03 02:21:05;;;;;;;0.45;0.45;;;;;;;16.16;58.94;97191.13;29395;209;63020;-63
2021/06/03 02:21:40;;;;;;;0.50;0.50;;;;;;;16.17;58.62;97183.72;29395;240;63004;-64
2021/06/03 02:22:13;;;;;;;0.50;0.50;;;;;;;16.17;59.09;97191.94;29395;211;63009;-64
2021/06/03 02:22:49;;;;;;;0.50;0.50;;;;;;;16.17;58.86;97187.25;29395;214;63008;-62
2021/06/03 02:23:20;;;;;;;0.50;0.50;;;;;;;16.18;59.04;97188.06;29395;212;63009;-64
2021/06/03 02:23:53;;;;;;;0.50;0.50;;;;;;;16.17;58.70;97187.25;29395;246;63005;-63
2021/06/03 02:24:26;;;;;;;0.50;0.50;;;;;;;16.18;58.81;97185.31;29394;231;64009;-62
2021/06/03 02:24:58;;;;;;;0.50;0.50;;;;;;;16.18;59.11;97191.59;29395;245;63005;-63
2021/06/03 02:25:30;;;;;;;0.50;0.50;;;;;;;16.18;58.83;97188.06;29395;207;63005;-63
2021/06/03 02:26:03;;;;;;;0.50;0.50;;;;;;;16.19;58.74;97190.47;29395;335;63005;-64
2021/06/03 02:26:36;;;;;;;0.50;0.50;;;;;;;16.19;58.69;97190.47;29395;199;63009;-65
2021/06/03 02:27:08;;;;;;;0.50;0.50;;;;;;;16.20;58.99;97194.03;29395;240;63005;-64
2021/06/03 02:27:40;;;;;;;0.50;0.50;;;;;;;16.20;59.46;97194.03;29395;271;63009;-64
2021/06/03 02:28:14;;;;;;;0.50;0.50;;;;;;;16.20;59.21;97194.81;29395;273;63014;-64
2021/06/03 02:28:48;;;;;;;0.50;0.50;;;;;;;16.20;59.11;97186.63;29395;196;63009;-63
2021/06/03 02:29:20;;;;;;;0.50;0.50;;;;;;;16.22;59.04;97189.03;29394;218;64004;-65
2021/06/03 02:29:52;;;;;;;0.43;0.43;;;;;;;16.23;59.50;97185.16;29395;224;63009;-64
2021/06/03 02:30:25;;;;;;;0.50;0.50;;;;;;;16.24;59.48;97192.25;29394;217;64004;-63
2021/06/03 02:30:58;;;;;;;0.50;0.50;;;;;;;16.24;59.43;97192.25;29395;203;63009;-61
2021/06/03 02:31:33;;;;;;;0.50;0.50;;;;;;;16.25;59.58;97191.13;29395;202;63005;-62
2021/06/03 02:32:05;;;;;;;0.50;0.50;;;;;;;16.27;59.75;97191.62;29395;239;63009;-61
2021/06/03 02:32:37;;;;;;;0.50;0.50;;;;;;;16.27;59.61;97191.62;29394;212;64005;-64
2021/06/03 02:33:09;;;;;;;0.50;0.50;;;;;;;16.27;60.34;97194.34;29394;239;64009;-61
2021/06/03 02:33:41;;;;;;;0.50;0.50;;;;;;;16.27;60.23;97195.16;29394;229;64005;-63
2021/06/03 02:34:13;;;;;;;0.50;0.50;;;;;;;16.29;60.12;97195.63;29395;202;63009;-63
2021/06/03 02:34:47;;;;;;;0.50;0.50;;;;;;;16.30;60.21;97199.16;29394;269;64004;-64
2021/06/03 02:35:19;;;;;;;0.50;0.50;;;;;;;16.32;60.34;97194.16;29395;202;63017;-64
2021/06/03 02:35:50;;;;;;;0.50;0.50;;;;;;;16.33;60.24;97201.25;29395;216;63004;-61
2021/06/03 02:36:22;;;;;;;0.40;0.40;;;;;;;16.34;60.53;97195.47;29394;246;64009;-61
2021/06/03 02:36:53;;;;;;;0.50;0.50;;;;;;;16.36;59.81;97200.62;29395;227;63004;-64
2021/06/03 02:37:25;;;;;;;0.50;0.50;;;;;;;16.37;60.72;97199.50;29395;202;63008;-64
2021/06/03 02:37:56;;;;;;;0.50;0.50;;;;;;;16.36;60.10;97198.69;29395;225;63004;-64
2021/06/03 02:38:33;;;;;;;0.50;0.50;;;;;;;16.38;60.47;97195.63;29395;197;63017;-63
2021/06/03 02:39:06;;;;;;;0.50;0.50;;;;;;;16.38;60.32;97198.34;29395;206;63005;-63
2021/06/03 02:39:38;;;;;;;0.50;0.50;;;;;;;16.39;60.29;97197.22;29395;220;63009;-64
2021/06/03 02:40:13;;;;;;;0.50;0.50;;;;;;;16.39;60.05;97194.50;29395;246;63005;-62
2021/06/03 02:40:44;;;;;;;0.40;0.40;;;;;;;16.41;60.03;97200.44;29395;212;63009;-63
2021/06/03 02:41:15;;;;;;;0.40;0.40;;;;;;;16.42;59.87;97194.66;29395;245;63005;-64
2021/06/03 02:41:48;;;;;;;0.47;0.47;;;;;;;16.43;59.73;97200.94;29394;273;64009;-64
2021/06/03 02:42:19;;;;;;;0.50;0.50;;;;;;;16.46;59.59;97194.00;29395;296;63004;-61